createdAt,value
2022-08-23T00:01:25.642Z,3.08
2022-08-23T00:03:55.875Z,3.50
2022-08-23T00:06:22.821Z,4.95
2022-08-23T00:08:51.540Z,2.60
2022-08-23T00:11:36.972Z,1.48
2022-08-23T00:14:20.887Z,1.75
2022-08-23T00:19:16.623Z,1.10
2022-08-23T00:21:43.644Z,1.10
2022-08-23T00:24:12.017Z,3.33
2022-08-23T00:26:52.914Z,1.17
2022-08-23T00:29:20.013Z,1.95
2022-08-23T00:31:46.945Z,1.92
2022-08-23T00:34:13.790Z,1.45
2022-08-23T00:36:40.954Z,1.60
2022-08-23T00:39:07.776Z,1.85
2022-08-23T00:41:34.908Z,1.13
2022-08-23T00:44:20.081Z,2.05
2022-08-23T00:47:12.790Z,1.55
2022-08-23T00:49:39.856Z,1.67
2022-08-23T00:52:30.521Z,0.88
2022-08-23T00:54:57.999Z,1.70
2022-08-23T00:57:24.778Z,1.35
2022-08-23T00:59:51.604Z,2.72
2022-08-23T01:02:18.332Z,1.58
2022-08-23T01:04:50.336Z,1.48
2022-08-23T01:07:32.195Z,1.60
2022-08-23T01:10:03.398Z,1.00
2022-08-23T01:12:36.523Z,2.42
2022-08-23T01:15:08.741Z,4.72
2022-08-23T01:17:47.702Z,4.10
2022-08-23T01:20:17.042Z,2.65
2022-08-23T01:23:02.681Z,1.63
2022-08-23T01:25:30.851Z,4.35
2022-08-23T01:27:57.694Z,5.20
2022-08-23T01:30:26.128Z,1.85
2022-08-23T01:32:55.373Z,2.67
2022-08-23T01:35:30.164Z,5.88
2022-08-23T01:37:57.241Z,3.20
2022-08-23T01:40:24.116Z,1.85
2022-08-23T01:42:50.931Z,3.67
2022-08-23T01:45:17.811Z,5.95
2022-08-23T01:47:44.549Z,3.97
2022-08-23T01:50:12.895Z,2.28
2022-08-23T01:52:47.255Z,2.72
2022-08-23T01:55:14.290Z,2.78
2022-08-23T01:57:41.383Z,5.53
2022-08-23T02:00:08.831Z,6.85
2022-08-23T02:02:35.846Z,4.28
2022-08-23T02:05:02.941Z,6.07
2022-08-23T02:07:29.668Z,4.40
2022-08-23T02:09:56.406Z,6.20
2022-08-23T02:12:23.194Z,4.75
2022-08-23T02:14:50.087Z,4.65
2022-08-23T02:17:16.953Z,4.47
2022-08-23T02:19:43.977Z,5.85
2022-08-23T02:22:11.206Z,6.65
2022-08-23T02:24:45.855Z,5.82
2022-08-23T02:27:15.301Z,6.78
2022-08-23T02:29:44.228Z,6.85
2022-08-23T02:32:12.419Z,5.82
2022-08-23T02:34:39.445Z,7.10
2022-08-23T02:37:07.344Z,8.05
2022-08-23T02:39:34.139Z,6.68
2022-08-23T02:42:01.056Z,8.35
2022-08-23T02:44:27.888Z,7.10
2022-08-23T02:46:56.000Z,9.15
2022-08-23T02:49:22.758Z,8.38
2022-08-23T02:51:49.675Z,7.05
2022-08-23T02:54:16.408Z,12.05
2022-08-23T02:56:43.253Z,9.63
2022-08-23T02:59:10.020Z,8.45
2022-08-23T03:01:38.657Z,9.48
2022-08-23T03:04:07.337Z,10.05
2022-08-23T03:06:34.247Z,10.20
2022-08-23T03:09:01.159Z,14.13
2022-08-23T03:11:28.355Z,13.65
2022-08-23T03:13:56.392Z,11.10
2022-08-23T03:16:23.692Z,12.20
2022-08-23T03:18:50.602Z,9.85
2022-08-23T03:21:17.597Z,11.30
2022-08-23T03:23:45.199Z,8.48
2022-08-23T03:26:12.409Z,9.40
2022-08-23T03:28:39.815Z,7.53
2022-08-23T03:31:06.996Z,10.32
2022-08-23T03:33:34.218Z,10.70
2022-08-23T03:36:02.059Z,8.45
2022-08-23T03:38:28.959Z,9.57
2022-08-23T03:40:55.731Z,8.02
2022-08-23T03:43:22.620Z,11.63
2022-08-23T03:45:49.564Z,8.27
2022-08-23T03:48:16.795Z,8.00
2022-08-23T03:50:43.864Z,8.98
2022-08-23T03:53:12.065Z,11.15
2022-08-23T03:55:42.634Z,7.43
2022-08-23T03:58:10.506Z,6.97
2022-08-23T04:00:37.500Z,7.82
2022-08-23T04:03:04.482Z,8.70
2022-08-23T04:05:31.262Z,5.82
2022-08-23T04:07:58.234Z,5.68
2022-08-23T04:10:25.065Z,4.28
2022-08-23T04:12:54.022Z,4.13
2022-08-23T04:15:20.808Z,6.07
2022-08-23T04:17:47.557Z,4.57
2022-08-23T04:20:14.535Z,4.13
2022-08-23T04:22:41.271Z,6.90
2022-08-23T04:25:33.850Z,4.90
2022-08-23T04:27:55.213Z,3.85
2022-08-23T04:30:22.120Z,4.72
2022-08-23T04:32:50.603Z,5.50
2022-08-23T04:35:17.936Z,7.72
2022-08-23T04:37:44.688Z,4.78
2022-08-23T04:40:30.128Z,5.88
2022-08-23T04:42:57.398Z,5.82
2022-08-23T04:45:24.404Z,8.45
2022-08-23T04:47:51.149Z,9.18
2022-08-23T04:50:18.025Z,9.57
2022-08-23T04:52:45.198Z,8.93
2022-08-23T04:55:13.189Z,10.98
2022-08-23T04:57:42.474Z,12.50
2022-08-23T05:00:11.852Z,10.07
2022-08-23T05:02:39.392Z,11.88
2022-08-23T05:05:07.313Z,9.55
2022-08-23T05:07:42.505Z,12.90
2022-08-23T05:10:11.621Z,7.97
2022-08-23T05:12:39.442Z,9.20
2022-08-23T05:15:06.691Z,9.20
2022-08-23T05:17:33.472Z,8.48
2022-08-23T05:20:00.221Z,6.93
2022-08-23T05:22:26.990Z,8.50
2022-08-23T05:24:53.752Z,9.43
2022-08-23T05:27:20.514Z,8.52
2022-08-23T05:29:47.473Z,6.25
2022-08-23T05:32:14.222Z,10.30
2022-08-23T05:34:41.163Z,8.00
2022-08-23T05:37:07.978Z,9.18
2022-08-23T05:39:37.106Z,6.88
2022-08-23T05:42:07.971Z,9.60
2022-08-23T05:44:36.763Z,9.68
2022-08-23T05:47:10.347Z,6.55
2022-08-23T05:49:38.606Z,4.43
2022-08-23T05:52:06.479Z,5.95
2022-08-23T05:54:33.545Z,4.55
2022-08-23T05:57:00.355Z,6.18
2022-08-23T05:59:27.238Z,6.78
2022-08-23T06:01:54.004Z,4.00
2022-08-23T06:04:21.504Z,10.25
2022-08-23T06:06:48.569Z,4.25
2022-08-23T06:09:16.397Z,8.88
2022-08-23T06:11:47.385Z,6.47
2022-08-23T06:14:14.346Z,10.52
2022-08-23T06:16:43.770Z,10.05
2022-08-23T06:19:10.797Z,6.93
2022-08-23T06:21:38.212Z,7.75
2022-08-23T06:24:05.271Z,9.48
2022-08-23T06:26:38.325Z,11.52
2022-08-23T06:29:09.837Z,11.07
2022-08-23T06:31:47.133Z,9.27
2022-08-23T06:34:33.327Z,9.55
2022-08-23T06:37:11.190Z,13.90
2022-08-23T06:39:38.197Z,8.95
2022-08-23T06:42:36.503Z,10.13
2022-08-23T06:44:56.861Z,10.82
2022-08-23T06:47:23.895Z,11.23
2022-08-23T06:49:57.930Z,11.50
2022-08-23T06:52:27.550Z,13.43
2022-08-23T06:54:54.603Z,10.05
2022-08-23T06:57:21.483Z,11.02
2022-08-23T06:59:51.242Z,10.27
2022-08-23T07:02:18.107Z,12.32
2022-08-23T07:04:45.111Z,10.07
2022-08-23T07:07:12.470Z,14.38
2022-08-23T07:09:39.921Z,12.40
2022-08-23T07:12:07.787Z,9.10
2022-08-23T07:14:34.889Z,11.05
2022-08-23T07:17:03.468Z,8.85
2022-08-23T07:19:32.082Z,11.75
2022-08-23T07:21:59.369Z,11.00
2022-08-23T07:24:29.496Z,12.57
2022-08-23T07:29:26.604Z,12.88
2022-08-23T07:31:55.307Z,11.30
2022-08-23T07:34:22.537Z,12.52
2022-08-23T07:36:49.511Z,11.85
2022-08-23T07:39:17.097Z,11.25
2022-08-23T07:41:44.178Z,12.85
2022-08-23T07:44:12.654Z,9.65
2022-08-23T07:46:43.738Z,7.57
2022-08-23T07:49:11.182Z,10.60
2022-08-23T07:51:38.509Z,14.13
2022-08-23T07:54:06.830Z,10.02
2022-08-23T07:56:34.635Z,12.57
2022-08-23T07:59:01.652Z,9.52
2022-08-23T08:01:29.065Z,10.27
2022-08-23T08:03:58.409Z,8.50
2022-08-23T08:06:32.434Z,6.60
2022-08-23T08:08:59.382Z,9.77
2022-08-23T08:11:30.912Z,12.07
2022-08-23T08:14:03.242Z,7.03
2022-08-23T08:16:38.160Z,8.05
2022-08-23T08:19:07.734Z,9.02
2022-08-23T08:21:35.003Z,6.03
2022-08-23T08:24:01.867Z,4.78
2022-08-23T08:26:29.001Z,12.50
2022-08-23T08:28:58.731Z,11.93
2022-08-23T08:31:27.480Z,6.65
2022-08-23T08:33:54.434Z,8.07
2022-08-23T08:36:39.428Z,3.97
2022-08-23T08:39:08.151Z,6.90
2022-08-23T08:41:44.342Z,12.45
2022-08-23T08:44:37.900Z,5.28
2022-08-23T08:47:12.907Z,5.82
2022-08-23T08:50:02.517Z,6.00
2022-08-23T08:52:32.076Z,4.75
2022-08-23T08:55:28.202Z,4.25
2022-08-23T08:57:55.163Z,3.85
2022-08-23T09:00:23.493Z,7.43
2022-08-23T09:02:53.114Z,6.22
2022-08-23T09:05:27.733Z,4.18
2022-08-23T09:07:58.261Z,3.72
2022-08-23T09:10:30.576Z,7.85
2022-08-23T09:13:19.820Z,5.43
2022-08-23T09:15:54.193Z,3.88
2022-08-23T09:18:23.595Z,5.50
2022-08-23T09:20:52.755Z,8.43
2022-08-23T09:23:27.788Z,2.72
2022-08-23T09:26:03.545Z,5.47
2022-08-23T09:28:32.181Z,6.72
2022-08-23T09:30:59.132Z,6.40
2022-08-23T09:33:27.944Z,4.80
2022-08-23T09:36:24.299Z,5.82
2022-08-23T09:39:01.615Z,8.50
2022-08-23T09:41:36.517Z,6.65
2022-08-23T09:44:13.434Z,6.15
2022-08-23T09:46:42.712Z,5.45
2022-08-23T09:49:21.710Z,10.40
2022-08-23T09:51:48.599Z,12.13
2022-08-23T09:54:34.276Z,3.63
2022-08-23T09:59:39.501Z,4.20
2022-08-23T10:02:07.540Z,5.28
2022-08-23T10:04:42.441Z,19.67
2022-08-23T10:07:32.412Z,5.97
2022-08-23T10:10:32.349Z,11.10
2022-08-23T10:12:59.590Z,7.28
2022-08-23T10:15:43.913Z,3.67
2022-08-23T10:18:28.877Z,3.50
2022-08-23T10:21:02.965Z,4.88
2022-08-23T10:23:43.124Z,7.65
2022-08-23T10:26:16.419Z,4.03
2022-08-23T10:32:20.084Z,4.68
2022-08-23T10:34:56.134Z,6.03
2022-08-23T10:37:46.963Z,2.67
2022-08-23T10:40:23.785Z,10.25
2022-08-23T10:43:15.653Z,6.63
2022-08-23T10:45:44.756Z,2.90
2022-08-23T10:48:32.695Z,2.83
2022-08-23T10:51:36.726Z,2.25
2022-08-23T10:54:23.952Z,3.22
2022-08-23T10:56:54.156Z,3.22
2022-08-23T10:59:24.051Z,2.55
2022-08-23T11:01:53.514Z,7.25
2022-08-23T11:04:47.527Z,8.85
2022-08-23T11:07:35.535Z,7.10
2022-08-23T11:10:16.682Z,4.45
2022-08-23T11:12:55.769Z,1.23
2022-08-23T11:15:31.513Z,1.20
2022-08-23T11:18:01.091Z,7.78
2022-08-23T11:20:50.043Z,6.25
2022-08-23T11:23:16.859Z,6.97
2022-08-23T11:25:44.471Z,3.30
2022-08-23T11:28:26.424Z,2.75
2022-08-23T11:30:58.458Z,2.50
2022-08-23T11:33:27.487Z,2.53
2022-08-23T11:36:11.353Z,5.95
2022-08-23T11:38:46.877Z,2.00
2022-08-23T11:41:22.035Z,3.95
2022-08-23T11:44:13.353Z,9.65
2022-08-23T11:46:57.424Z,4.22
2022-08-23T11:49:30.697Z,2.13
2022-08-23T11:54:50.135Z,3.42
2022-08-23T11:57:52.007Z,3.05
2022-08-23T12:00:28.515Z,2.50
2022-08-23T12:03:35.410Z,1.55
2022-08-23T12:06:13.600Z,4.43
2022-08-23T12:09:01.654Z,3.50
2022-08-23T12:11:56.782Z,2.70
2022-08-23T12:14:32.859Z,1.90
2022-08-23T12:17:00.247Z,4.72
2022-08-23T12:19:41.176Z,2.47
2022-08-23T12:22:19.326Z,2.00
2022-08-23T12:24:53.447Z,2.25
2022-08-23T12:27:29.831Z,2.17
2022-08-23T12:30:09.464Z,1.55
2022-08-23T12:32:54.133Z,7.22
2022-08-23T12:35:39.155Z,3.60
2022-08-23T12:38:38.377Z,3.42
2022-08-23T12:41:28.402Z,1.33
2022-08-23T12:44:06.191Z,3.63
2022-08-23T12:46:43.848Z,2.45
2022-08-23T12:49:22.189Z,1.27
2022-08-23T12:51:50.362Z,7.63
2022-08-23T12:54:19.549Z,7.43
2022-08-23T12:56:48.100Z,6.60
2022-08-23T12:59:35.268Z,5.95
2022-08-23T13:02:30.738Z,3.63
2022-08-23T13:05:04.164Z,1.27
2022-08-23T13:07:35.060Z,15.10
2022-08-23T13:10:02.046Z,7.85
2022-08-23T13:12:28.929Z,10.50
2022-08-23T13:14:56.229Z,1.83
2022-08-23T13:17:39.905Z,5.30
2022-08-23T13:20:12.260Z,6.30
2022-08-23T13:22:39.574Z,1.73
2022-08-23T13:25:32.415Z,2.60
2022-08-23T13:28:23.407Z,0.52
2022-08-23T13:31:01.555Z,1.05
2022-08-23T13:33:29.801Z,2.67
2022-08-23T13:36:17.183Z,0.85
2022-08-23T13:38:44.135Z,6.07
2022-08-23T13:41:13.957Z,0.60
2022-08-23T13:43:43.835Z,1.42
2022-08-23T13:46:18.143Z,8.07
2022-08-23T13:49:02.453Z,1.25
2022-08-23T13:51:37.034Z,1.58
2022-08-23T13:54:11.035Z,1.15
2022-08-23T13:56:53.410Z,2.47
2022-08-23T13:59:32.257Z,0.93
2022-08-23T14:02:17.927Z,4.10
2022-08-23T14:04:44.864Z,0.70
2022-08-23T14:07:12.655Z,2.72
2022-08-23T14:09:39.750Z,0.50
2022-08-23T14:12:16.938Z,2.30
2022-08-23T14:14:43.768Z,0.32
2022-08-23T14:17:12.916Z,4.03
2022-08-23T14:22:32.462Z,0.65
2022-08-23T14:24:59.239Z,0.65
2022-08-23T14:27:26.145Z,1.95
2022-08-23T14:29:52.980Z,2.03
2022-08-23T14:32:19.803Z,0.55
2022-08-23T14:34:46.648Z,1.35
2022-08-23T14:38:00.594Z,0.82
2022-08-23T14:40:00.427Z,3.42
2022-08-23T14:42:27.348Z,7.57
2022-08-23T14:44:54.156Z,1.25
2022-08-23T14:47:20.969Z,2.15
2022-08-23T14:49:52.012Z,3.53
2022-08-23T14:52:20.642Z,2.30
2022-08-23T14:54:47.468Z,0.45
2022-08-23T14:57:14.464Z,3.35
2022-08-23T14:59:41.339Z,0.98
2022-08-23T15:02:11.858Z,1.10
2022-08-23T15:04:38.860Z,1.75
2022-08-23T15:07:21.006Z,2.83
2022-08-23T15:09:49.014Z,0.30
2022-08-23T15:15:09.523Z,0.93
2022-08-23T15:18:06.073Z,0.65
2022-08-23T15:20:34.724Z,4.88
2022-08-23T15:23:01.805Z,1.40
2022-08-23T15:25:29.629Z,0.73
2022-08-23T15:27:56.606Z,0.95
2022-08-23T15:30:24.136Z,4.28
2022-08-23T15:32:52.502Z,0.98
2022-08-23T15:37:51.000Z,2.67
2022-08-23T15:40:18.053Z,0.82
2022-08-23T15:42:44.886Z,3.00
2022-08-23T15:45:12.021Z,0.98
2022-08-23T15:47:52.886Z,0.22
2022-08-23T15:50:21.974Z,0.63
2022-08-23T15:52:48.855Z,1.85
2022-08-23T15:55:16.005Z,0.50
2022-08-23T15:57:45.564Z,2.38
2022-08-23T16:00:13.249Z,0.80
2022-08-23T16:03:04.264Z,0.93
2022-08-23T16:05:27.241Z,1.45
2022-08-23T16:07:55.213Z,0.57
2022-08-23T16:10:25.151Z,1.27
2022-08-23T16:12:55.314Z,1.17
2022-08-23T16:15:22.180Z,1.85
2022-08-23T16:17:49.505Z,1.67
2022-08-23T16:20:17.188Z,0.82
2022-08-23T16:22:44.212Z,1.13
2022-08-23T16:25:11.141Z,3.17
2022-08-23T16:27:38.184Z,2.08
2022-08-23T16:30:05.844Z,1.52
2022-08-23T16:32:32.664Z,3.97
2022-08-23T16:34:59.761Z,1.40
2022-08-23T16:37:26.555Z,2.28
2022-08-23T16:39:53.513Z,0.90
2022-08-23T16:42:20.390Z,1.20
2022-08-23T16:44:47.228Z,2.90
2022-08-23T16:47:15.518Z,1.73
2022-08-23T16:49:43.214Z,1.88
2022-08-23T16:52:12.976Z,0.70
2022-08-23T16:54:39.820Z,1.73
2022-08-23T16:57:06.865Z,2.92
2022-08-23T16:59:40.208Z,1.15
2022-08-23T17:02:10.784Z,1.67
2022-08-23T17:04:38.062Z,3.67
2022-08-23T17:07:07.407Z,2.15
2022-08-23T17:09:34.221Z,2.42
2022-08-23T17:12:01.037Z,4.05
2022-08-23T17:14:28.303Z,2.47
2022-08-23T17:16:55.419Z,3.35
2022-08-23T17:19:22.446Z,1.05
2022-08-23T17:21:49.181Z,1.55
2022-08-23T17:24:19.063Z,1.65
2022-08-23T17:26:46.015Z,3.35
2022-08-23T17:29:12.926Z,1.20
2022-08-23T17:31:40.240Z,1.98
2022-08-23T17:34:07.137Z,1.52
2022-08-23T17:36:46.197Z,2.25
2022-08-23T17:39:15.947Z,1.85
2022-08-23T17:41:45.407Z,6.38
2022-08-23T17:44:12.700Z,4.82
2022-08-23T17:46:40.742Z,7.82
2022-08-23T17:49:07.611Z,4.38
2022-08-23T17:51:35.515Z,2.45
2022-08-23T17:54:03.074Z,1.42
2022-08-23T17:56:29.894Z,4.13
2022-08-23T17:58:57.134Z,3.45
2022-08-23T18:01:24.016Z,2.47
2022-08-23T18:03:51.035Z,2.58
2022-08-23T18:06:17.993Z,2.55
2022-08-23T18:08:45.757Z,3.50
2022-08-23T18:11:13.793Z,3.75
2022-08-23T18:13:40.620Z,4.72
2022-08-23T18:16:07.631Z,2.80
2022-08-23T18:18:34.643Z,2.03
2022-08-23T18:21:08.196Z,4.00
2022-08-23T18:23:35.257Z,3.90
2022-08-23T18:26:08.707Z,2.03
2022-08-23T18:28:35.477Z,2.63
2022-08-23T18:31:03.771Z,1.90
2022-08-23T18:33:46.492Z,3.83
2022-08-23T18:38:41.007Z,3.75
2022-08-23T18:41:07.801Z,3.90
2022-08-23T18:43:37.871Z,2.92
2022-08-23T18:46:05.209Z,1.70
2022-08-23T18:48:32.126Z,2.85
2022-08-23T18:50:58.922Z,1.85
2022-08-23T18:53:25.728Z,2.58
2022-08-23T18:55:52.734Z,4.88
2022-08-23T18:58:21.078Z,3.40
2022-08-23T19:00:50.604Z,3.80
2022-08-23T19:03:17.858Z,6.32
2022-08-23T19:05:45.084Z,4.25
2022-08-23T19:08:12.403Z,4.80
2022-08-23T19:10:39.513Z,11.07
2022-08-23T19:13:06.419Z,7.28
2022-08-23T19:15:34.095Z,5.13
2022-08-23T19:18:01.507Z,2.60
2022-08-23T19:20:28.477Z,6.25
2022-08-23T19:22:56.246Z,5.75
2022-08-23T19:25:23.238Z,5.00
2022-08-23T19:27:50.142Z,2.30
2022-08-23T19:30:17.553Z,5.15
2022-08-23T19:32:45.178Z,4.63
2022-08-23T19:35:13.709Z,2.85
2022-08-23T19:37:40.554Z,3.45
2022-08-23T19:40:07.861Z,2.85
2022-08-23T19:42:37.113Z,3.63
2022-08-23T19:45:05.193Z,1.85
2022-08-23T19:47:32.191Z,1.90
2022-08-23T19:49:59.178Z,1.88
2022-08-23T19:52:26.203Z,2.33
2022-08-23T19:54:53.229Z,2.80
2022-08-23T19:57:20.487Z,1.98
2022-08-23T19:59:47.396Z,2.63
2022-08-23T20:02:14.512Z,2.65
2022-08-23T20:04:41.645Z,2.72
2022-08-23T20:07:09.112Z,6.57
2022-08-23T20:09:36.029Z,1.83
2022-08-23T20:12:03.489Z,3.08
2022-08-23T20:14:31.045Z,5.50
2022-08-23T20:16:58.185Z,1.83
2022-08-23T20:19:25.413Z,1.45
2022-08-23T20:22:15.666Z,2.38
2022-08-23T20:24:51.601Z,3.22
2022-08-23T20:27:24.485Z,2.50
2022-08-23T20:29:59.000Z,2.40
2022-08-23T20:32:26.422Z,7.05
2022-08-23T20:34:53.421Z,3.80
2022-08-23T20:37:20.261Z,2.92
2022-08-23T20:39:47.057Z,3.40
2022-08-23T20:42:14.033Z,6.25
2022-08-23T20:44:40.786Z,4.93
2022-08-23T20:47:07.666Z,4.38
2022-08-23T20:49:34.481Z,4.22
2022-08-23T20:52:01.355Z,4.78
2022-08-23T20:54:28.271Z,4.50
2022-08-23T20:56:55.039Z,4.70
2022-08-23T20:59:22.185Z,3.03
2022-08-23T21:01:49.652Z,5.13
2022-08-23T21:04:17.078Z,3.17
2022-08-23T21:06:46.836Z,3.63
2022-08-23T21:09:16.959Z,4.78
2022-08-23T21:11:44.007Z,3.22
2022-08-23T21:14:11.150Z,4.55
2022-08-23T21:16:38.031Z,2.92
2022-08-23T21:19:05.324Z,2.85
2022-08-23T21:21:32.243Z,5.30
2022-08-23T21:23:59.283Z,4.72
2022-08-23T21:26:26.138Z,3.38
2022-08-23T21:28:52.930Z,4.90
2022-08-23T21:31:22.292Z,3.40
2022-08-23T21:33:49.547Z,2.38
2022-08-23T21:36:16.768Z,2.83
2022-08-23T21:38:43.618Z,4.95
2022-08-23T21:41:34.617Z,5.25
2022-08-23T21:44:01.786Z,4.47
2022-08-23T21:46:28.670Z,4.07
2022-08-23T21:48:55.987Z,2.85
2022-08-23T21:51:22.748Z,2.63
2022-08-23T21:53:49.784Z,5.30
2022-08-23T21:56:16.894Z,4.38
2022-08-23T21:58:44.222Z,2.33
2022-08-23T22:01:11.668Z,5.63
2022-08-23T22:03:38.453Z,4.18
2022-08-23T22:06:05.552Z,5.70
2022-08-23T22:08:35.336Z,3.13
2022-08-23T22:11:07.220Z,6.00
2022-08-23T22:13:34.958Z,3.45
2022-08-23T22:16:01.895Z,4.35
2022-08-23T22:18:29.674Z,4.80
2022-08-23T22:20:58.212Z,8.13
2022-08-23T22:23:26.307Z,5.47
2022-08-23T22:25:56.422Z,7.18
2022-08-23T22:28:23.209Z,4.10
2022-08-23T22:30:50.107Z,3.90
2022-08-23T22:33:18.311Z,3.67
2022-08-23T22:35:48.432Z,3.92
2022-08-23T22:38:15.939Z,4.05
2022-08-23T22:40:49.983Z,5.97
2022-08-23T22:43:17.813Z,5.05
2022-08-23T22:45:51.446Z,5.47
2022-08-23T22:48:18.207Z,4.57
2022-08-23T22:50:44.939Z,4.97
2022-08-23T22:53:12.142Z,3.67
2022-08-23T22:55:40.501Z,4.10
2022-08-23T22:58:07.714Z,4.97
2022-08-23T23:00:35.209Z,6.88
2022-08-23T23:03:01.975Z,5.45
2022-08-23T23:05:33.179Z,5.43
2022-08-23T23:08:18.440Z,5.88
2022-08-23T23:10:45.268Z,8.45
2022-08-23T23:13:12.032Z,7.35
2022-08-23T23:15:39.422Z,4.07
2022-08-23T23:18:06.526Z,5.43
2022-08-23T23:20:40.242Z,5.35
2022-08-23T23:23:14.742Z,7.50
2022-08-23T23:25:42.500Z,7.68
2022-08-23T23:28:09.296Z,4.97
2022-08-23T23:30:36.301Z,5.00
2022-08-23T23:33:03.360Z,4.10
2022-08-23T23:35:30.281Z,7.30
2022-08-23T23:37:57.087Z,6.68
2022-08-23T23:40:24.414Z,4.47
2022-08-23T23:42:51.355Z,3.88
2022-08-23T23:45:18.528Z,4.32
2022-08-23T23:47:45.356Z,5.68
2022-08-23T23:50:12.771Z,4.85
2022-08-23T23:52:39.865Z,8.63
2022-08-23T23:55:08.214Z,9.15
2022-08-23T23:57:35.069Z,8.35
